Torre De Belem — CSIO — position and weather

sailwx.info

Track history (hours):
 
Tides and Currents Weather Stations Pressure Air Temp Water Temp Dewpoint Dewpoint Depression Visibility Wind Speed Wind Dir Waves Ship Positions

Torre De Belem

Last reported at 2017-Jul-26 18:30 UTC. Time now 2017-Jul-26 18:40 UTC.
Position N 38°42' W 009°25'.

Length 14 m.

MMSI: 263671850.

Date/timePositionNaut miles runAvg speedWind from/ knotsBaromVisibWave heightAir tempDewpointWater temp
2017-Jul-26 18:30N 38°42' W 009°25'0 0.0
2017-Jul-26 18:00N 38°42' W 009°25'0 0.0
2017-Jul-26 17:30N 38°42' W 009°25'0 0.0
2017-Jul-26 17:00N 38°42' W 009°25'0 0.0
2017-Jul-26 16:30N 38°42' W 009°25'0 0.0
2017-Jul-26 16:00N 38°42' W 009°25'0 0.0
2017-Jul-26 15:30N 38°42' W 009°25'0 0.0
2017-Jul-26 15:00N 38°42' W 009°25'0 0.0
2017-Jul-26 14:00N 38°42' W 009°25'0 0.2
2017-Jul-26 13:30N 38°42' W 009°25'0 0.2
2017-Jul-26 13:01N 38°42' W 009°25'0 0.0
2017-Jul-26 05:11N 38°42' W 009°25'2 9.2
2017-Jul-26 05:00N 38°40' W 009°25'2 0.5
2017-Jul-26 01:29N 38°42' W 009°25'2 3.5
2017-Jul-26 01:00N 38°40' W 009°24'2 3.4
2017-Jul-26 00:30N 38°42' W 009°25'0 0.0
2017-Jul-25 21:05N 38°42' W 009°25'0 1.4
2017-Jul-25 21:01N 38°42' W 009°25'3 6.8
2017-Jul-25 20:30N 38°38' W 009°24'3 0.7
2017-Jul-25 15:29N 38°42' W 009°25'5 9.7
2017-Jul-25 15:00N 38°37' W 009°22'5 0.5
2017-Jul-25 05:04N 38°42' W 009°25'0 2.9
2017-Jul-25 05:00N 38°42' W 009°25'0 0.3
2017-Jul-25 04:30N 38°42' W 009°25'0 0.0
2017-Jul-25 04:00N 38°42' W 009°25'0 0.0
2017-Jul-25 03:30N 38°42' W 009°25'2 4.9
2017-Jul-25 03:00N 38°39' W 009°24'2 4.9
2017-Jul-25 02:30N 38°42' W 009°25'0 0.0
2017-Jul-25 02:00N 38°42' W 009°25'0 0.0
2017-Jul-25 01:30N 38°42' W 009°25'2 4.1
2017-Jul-25 01:00N 38°40' W 009°26'2 0.4
2017-Jul-24 19:23N 38°42' W 009°25'410.6
2017-Jul-24 19:00N 38°38' W 009°23'4 8.1
2017-Jul-24 18:30N 38°42' W 009°25'0 0.1
2017-Jul-24 18:00N 38°42' W 009°25'0 0.0
2017-Jul-24 17:31N 38°42' W 009°25'0 0.0
2017-Jul-24 17:01N 38°42' W 009°25'0 0.0
2017-Jul-24 16:31N 38°42' W 009°25'0 0.0
2017-Jul-24 16:00N 38°42' W 009°25'2 0.8
2017-Jul-24 13:01N 38°39' W 009°24'1 1.7
2017-Jul-24 12:30N 38°40' W 009°24'2 3.0
2017-Jul-24 12:00N 38°42' W 009°25'0 0.0
2017-Jul-24 11:30N 38°42' W 009°25'0 0.0
2017-Jul-24 11:00N 38°42' W 009°25'0 0.0
2017-Jul-24 10:30N 38°42' W 009°25'0 0.0
2017-Jul-24 10:00N 38°42' W 009°25'0 0.0
2017-Jul-24 09:30N 38°42' W 009°25'0 0.0
2017-Jul-24 08:59N 38°42' W 009°25'0 0.0
2017-Jul-24 08:30N 38°42' W 009°25'2 3.2
2017-Jul-24 08:00N 38°40' W 009°25'1 1.4
2017-Jul-24 07:31N 38°40' W 009°26'2 4.1
2017-Jul-24 07:00N 38°42' W 009°25'0 0.0
2017-Jul-24 06:31N 38°42' W 009°25'0 0.0
2017-Jul-24 06:00N 38°42' W 009°25'0 0.0
2017-Jul-24 05:30N 38°42' W 009°25'0 0.0
2017-Jul-24 05:00N 38°42' W 009°25'0 0.0
2017-Jul-24 04:30N 38°42' W 009°25'2 3.7
2017-Jul-24 04:00N 38°40' W 009°25'2 3.6
2017-Jul-24 03:30N 38°42' W 009°25'0 0.0
2017-Jul-24 03:00N 38°42' W 009°25'0 0.0
2017-Jul-24 02:30N 38°42' W 009°25'0 0.0
2017-Jul-24 02:00N 38°42' W 009°25'0 0.0
2017-Jul-24 01:30N 38°42' W 009°25'0 0.0
2017-Jul-24 01:00N 38°42' W 009°25'0 0.0
2017-Jul-24 00:30N 38°42' W 009°25'0 0.0
2017-Jul-23 23:59N 38°42' W 009°25'0 0.0
2017-Jul-23 23:30N 38°42' W 009°25'0 0.0
2017-Jul-23 22:59N 38°42' W 009°25'0 0.0
2017-Jul-23 22:30N 38°42' W 009°25'0 0.0
2017-Jul-23 21:59N 38°42' W 009°25'0 0.0
2017-Jul-23 21:28N 38°42' W 009°25'0 0.0
2017-Jul-23 21:00N 38°42' W 009°25'0 0.0
2017-Jul-23 20:29N 38°42' W 009°25'0 0.0
2017-Jul-23 20:00N 38°42' W 009°25'0 0.0
2017-Jul-23 19:30N 38°42' W 009°25'0 0.0
2017-Jul-23 19:00N 38°42' W 009°25'0 0.0
2017-Jul-23 18:30N 38°42' W 009°25'0 0.0
2017-Jul-23 17:59N 38°42' W 009°25'0 0.0
2017-Jul-23 17:30N 38°42' W 009°25'0 0.0
2017-Jul-23 17:00N 38°42' W 009°25'0 0.0
2017-Jul-23 16:30N 38°42' W 009°25'0 0.0
2017-Jul-23 16:00N 38°42' W 009°25'0 0.0
2017-Jul-23 15:30N 38°42' W 009°25'0 0.0
2017-Jul-23 15:00N 38°42' W 009°25'0 0.0
2017-Jul-23 14:30N 38°42' W 009°25'2 4.1
2017-Jul-23 14:00N 38°40' W 009°25'2 4.1
2017-Jul-23 13:30N 38°42' W 009°25'0 0.0
2017-Jul-23 13:00N 38°42' W 009°25'0 0.0
2017-Jul-23 12:30N 38°42' W 009°25'0 0.0
2017-Jul-23 11:59N 38°42' W 009°25'0 0.0
2017-Jul-23 11:30N 38°42' W 009°25'0 0.0
2017-Jul-23 11:00N 38°42' W 009°25'0 0.0
2017-Jul-23 10:29N 38°42' W 009°25'0 0.0
2017-Jul-23 10:00N 38°42' W 009°25'0 0.0
2017-Jul-23 09:30N 38°42' W 009°25'0 0.0
2017-Jul-23 09:00N 38°42' W 009°25'0 0.0
2017-Jul-23 08:30N 38°42' W 009°25'0 0.0
2017-Jul-23 08:00N 38°42' W 009°25'0 0.0
2017-Jul-23 07:30N 38°42' W 009°25'0 0.0
2017-Jul-23 07:00N 38°42' W 009°25'0 0.0
2017-Jul-23 06:30N 38°42' W 009°25'0 0.0
2017-Jul-23 05:59N 38°42' W 009°25'0 0.0
2017-Jul-23 05:30N 38°42' W 009°25'3 5.8
2017-Jul-23 05:00N 38°39' W 009°25'3 0.2
2017-Jul-22 11:49N 38°42' W 009°25'3 9.1
2017-Jul-22 11:30N 38°39' W 009°23'5 9.6
2017-Jul-22 11:00N 38°41' W 009°17'3 5.2
2017-Jul-22 10:30N 38°42' W 009°14'0 0.0
2017-Jul-22 10:00N 38°42' W 009°14'0 0.0
2017-Jul-22 09:30N 38°42' W 009°14'0 0.0
2017-Jul-22 09:00N 38°42' W 009°14'0 0.0
2017-Jul-22 08:29N 38°42' W 009°14'0 0.0
2017-Jul-22 08:00N 38°42' W 009°14'0 0.0
2017-Jul-22 07:30N 38°42' W 009°14'0 0.0
2017-Jul-22 07:00N 38°42' W 009°14'0 0.0
2017-Jul-22 06:30N 38°42' W 009°14'0 0.0
2017-Jul-22 06:00N 38°42' W 009°14'0 0.0
2017-Jul-22 05:30N 38°42' W 009°14'0 0.0
2017-Jul-22 05:00N 38°42' W 009°14'0 0.0
2017-Jul-22 04:30N 38°42' W 009°14'0 0.0
2017-Jul-22 04:00N 38°42' W 009°14'0 0.0
2017-Jul-22 03:30N 38°42' W 009°14'0 0.0
2017-Jul-22 03:00N 38°42' W 009°14'0 0.0
2017-Jul-22 02:30N 38°42' W 009°14'0 0.0
2017-Jul-22 02:00N 38°42' W 009°14'0 0.0
2017-Jul-22 01:30N 38°42' W 009°14'0 0.0
2017-Jul-22 00:58N 38°42' W 009°14'0 0.0
2017-Jul-22 00:30N 38°42' W 009°14'0 0.0
2017-Jul-22 00:00N 38°42' W 009°14'0 0.0
2017-Jul-21 23:28N 38°42' W 009°14'0 0.0
2017-Jul-21 22:59N 38°42' W 009°14'0 0.0
2017-Jul-21 22:30N 38°42' W 009°14'0 0.0
2017-Jul-21 22:00N 38°42' W 009°14'0 0.0
2017-Jul-21 21:30N 38°42' W 009°14'0 0.0
2017-Jul-21 21:00N 38°42' W 009°14'0 0.0
2017-Jul-21 20:30N 38°42' W 009°14'0 0.0
2017-Jul-21 19:59N 38°42' W 009°14'0 0.0
2017-Jul-21 19:29N 38°42' W 009°14'0 0.0
2017-Jul-21 19:00N 38°42' W 009°14'0 0.0
2017-Jul-21 18:30N 38°42' W 009°14'0 0.0
2017-Jul-21 17:59N 38°42' W 009°14'0 0.0
2017-Jul-21 17:30N 38°42' W 009°14'0 0.0
2017-Jul-21 17:00N 38°42' W 009°14'0 0.0
2017-Jul-21 16:30N 38°42' W 009°14'0 0.0
2017-Jul-21 16:00N 38°42' W 009°14'0 0.0
2017-Jul-21 15:28N 38°42' W 009°14'0 0.0
2017-Jul-21 15:00N 38°42' W 009°14'0 0.0
2017-Jul-21 14:30N 38°42' W 009°14'0 0.0
2017-Jul-21 13:59N 38°42' W 009°14'0 0.0
2017-Jul-21 13:30N 38°42' W 009°14'0 0.0
2017-Jul-21 13:00N 38°42' W 009°14'0 0.0
2017-Jul-21 12:30N 38°42' W 009°14'0 0.0
2017-Jul-21 12:00N 38°42' W 009°14'0 0.0
2017-Jul-21 11:30N 38°42' W 009°14'0 0.0
2017-Jul-21 11:00N 38°42' W 009°14'0 0.0
2017-Jul-21 10:30N 38°42' W 009°14'0 0.0
2017-Jul-21 10:00N 38°42' W 009°14'0 0.0
2017-Jul-21 09:30N 38°42' W 009°14'0 0.0
2017-Jul-21 09:00N 38°42' W 009°14'0 0.6
2017-Jul-21 08:30N 38°42' W 009°14'2 3.7
2017-Jul-21 08:00N 38°41' W 009°12'510.2
2017-Jul-21 07:30N 38°40' W 009°18'3 2.7
2017-Jul-21 06:12N 38°42' W 009°14'0 0.0
2017-Jul-21 06:00N 38°42' W 009°14'0 0.0
2017-Jul-21 05:30N 38°42' W 009°14'0 0.0
2017-Jul-21 05:00N 38°42' W 009°14'0 0.0
2017-Jul-21 04:30N 38°42' W 009°14'0 0.0
2017-Jul-21 04:00N 38°42' W 009°14'0 0.0
2017-Jul-21 03:30N 38°42' W 009°14'0 0.0
2017-Jul-21 03:00N 38°42' W 009°14'0 0.0
2017-Jul-21 02:30N 38°42' W 009°14'0 0.0
2017-Jul-21 01:58N 38°42' W 009°14'0 0.0
2017-Jul-21 01:30N 38°42' W 009°14'0 0.0
2017-Jul-21 01:00N 38°42' W 009°14'0 0.0
2017-Jul-21 00:30N 38°42' W 009°14'0 0.0
2017-Jul-20 23:59N 38°42' W 009°14'0 0.0
2017-Jul-20 23:30N 38°42' W 009°14'0 0.0
2017-Jul-20 23:00N 38°42' W 009°14'0 0.0
2017-Jul-20 22:30N 38°42' W 009°14'0 0.0
2017-Jul-20 22:00N 38°42' W 009°14'0 0.0
2017-Jul-20 21:29N 38°42' W 009°14'0 0.0
2017-Jul-20 20:59N 38°42' W 009°14'0 0.0
2017-Jul-20 20:30N 38°42' W 009°14'2 3.2
2017-Jul-20 20:00N 38°41' W 009°16'713.2
2017-Jul-20 19:30N 38°38' W 009°23'4 7.8
2017-Jul-20 19:00N 38°42' W 009°25'0 0.0
2017-Jul-20 07:10N 38°42' W 009°25'1 5.7
2017-Jul-20 07:01N 38°41' W 009°25'1 0.2
2017-Jul-20 03:15N 38°42' W 009°25'2 9.0
2017-Jul-20 03:01N 38°40' W 009°23'1 1.0
2017-Jul-20 02:30N 38°40' W 009°24'2 0.4
2017-Jul-19 22:06N 38°42' W 009°25'0 0.7
2017-Jul-19 22:00N 38°42' W 009°25'0 0.0
2017-Jul-19 13:19N 38°42' W 009°25'310.8
2017-Jul-19 13:00N 38°39' W 009°23'3 6.5
2017-Jul-19 12:30N 38°42' W 009°25'0 0.7
2017-Jul-19 12:00N 38°41' W 009°25'1 2.1
2017-Jul-19 11:30N 38°40' W 009°26'1 0.0
2017-Jul-18 09:04N 38°42' W 009°25'0 0.0
2017-Jul-18 09:00N 38°42' W 009°25'0 0.0
2017-Jul-18 08:29N 38°42' W 009°25'1 2.6
2017-Jul-18 08:00N 38°40' W 009°25'1 2.5
2017-Jul-18 07:30N 38°42' W 009°25'0 0.0
2017-Jul-18 07:00N 38°42' W 009°25'0 0.0
2017-Jul-18 06:30N 38°42' W 009°25'0 0.0
2017-Jul-18 06:00N 38°42' W 009°25'0 0.0
2017-Jul-18 05:30N 38°42' W 009°25'0 0.0
2017-Jul-18 05:00N 38°42' W 009°25'0 0.0
2017-Jul-18 04:30N 38°42' W 009°25'0 0.0
2017-Jul-18 04:00N 38°42' W 009°25'0 0.0
2017-Jul-18 03:30N 38°42' W 009°25'0 0.0
2017-Jul-18 03:00N 38°42' W 009°25'0 0.0
2017-Jul-18 02:30N 38°42' W 009°25'0 0.0
2017-Jul-18 02:00N 38°42' W 009°25'0 0.0
2017-Jul-18 01:30N 38°42' W 009°25'0 0.0
2017-Jul-18 00:59N 38°42' W 009°25'0 0.0
2017-Jul-18 00:30N 38°42' W 009°25'0 0.0
2017-Jul-18 00:00N 38°42' W 009°25'0 0.0
2017-Jul-17 23:30N 38°42' W 009°25'1 1.5
2017-Jul-17 23:00N 38°41' W 009°24'2 4.7
2017-Jul-17 22:30N 38°39' W 009°24'3 6.0
2017-Jul-17 22:00N 38°42' W 009°25'0 0.0
2017-Jul-17 21:30N 38°42' W 009°25'0 0.0
2017-Jul-17 21:00N 38°42' W 009°25'0 0.0
2017-Jul-17 20:30N 38°42' W 009°25'0 0.0
2017-Jul-17 20:00N 38°42' W 009°25'0 0.0
2017-Jul-17 19:30N 38°42' W 009°25'0 0.0
2017-Jul-17 19:00N 38°42' W 009°25'3 6.7
2017-Jul-17 18:30N 38°39' W 009°23'3 6.6
2017-Jul-17 18:00N 38°42' W 009°25'0 0.0
2017-Jul-17 07:42N 38°42' W 009°25'1 7.3
2017-Jul-17 07:30N 38°40' W 009°25'510.2
2017-Jul-17 07:00N 38°35' W 009°26'4 7.2
2017-Jul-17 06:30N 38°37' W 009°23'5 1.3
2017-Jul-17 02:56N 38°42' W 009°25'0 0.2
2017-Jul-17 02:30N 38°42' W 009°25'0 0.2
2017-Jul-17 02:00N 38°42' W 009°25'0 0.0
2017-Jul-17 01:30N 38°42' W 009°25'0 0.0
2017-Jul-17 01:00N 38°42' W 009°25'0 0.0
2017-Jul-17 00:30N 38°42' W 009°25'0 0.0
2017-Jul-17 00:00N 38°42' W 009°25'0 0.0
2017-Jul-16 23:30N 38°42' W 009°25'0 0.0
2017-Jul-16 23:00N 38°42' W 009°25'0 0.0
2017-Jul-16 22:30N 38°42' W 009°25'0 0.0
2017-Jul-16 22:00N 38°42' W 009°25'0 0.0
2017-Jul-16 21:30N 38°42' W 009°25'0 0.0
2017-Jul-16 21:00N 38°42' W 009°25'0 0.0
2017-Jul-16 20:30N 38°42' W 009°25'0 0.0
2017-Jul-16 20:00N 38°42' W 009°25'0 0.0
2017-Jul-16 19:30N 38°42' W 009°25'0 0.0
2017-Jul-16 19:00N 38°42' W 009°25'0 0.0
2017-Jul-16 18:30N 38°42' W 009°25'  
Track history (hours):
 
Tides and Currents Weather Stations Pressure Air Temp Water Temp Dewpoint Dewpoint Depression Visibility Wind Speed Wind Dir Waves Ship Positions

Torre De Belem

Last reported at 2017-Jul-26 18:30 UTC. Time now 2017-Jul-26 18:40 UTC.
Position N 38°42' W 009°25'.

Length 14 m.

MMSI: 263671850.

Date/timePositionNaut miles runAvg speedWind from/ knotsBaromVisibWave heightAir tempDewpointWater temp
2017-Jul-26 18:30N 38°42' W 009°25'0 0.0
2017-Jul-26 18:00N 38°42' W 009°25'0 0.0
2017-Jul-26 17:30N 38°42' W 009°25'0 0.0
2017-Jul-26 17:00N 38°42' W 009°25'0 0.0
2017-Jul-26 16:30N 38°42' W 009°25'0 0.0
2017-Jul-26 16:00N 38°42' W 009°25'0 0.0
2017-Jul-26 15:30N 38°42' W 009°25'0 0.0
2017-Jul-26 15:00N 38°42' W 009°25'0 0.0
2017-Jul-26 14:00N 38°42' W 009°25'0 0.2
2017-Jul-26 13:30N 38°42' W 009°25'0 0.2
2017-Jul-26 13:01N 38°42' W 009°25'0 0.0
2017-Jul-26 05:11N 38°42' W 009°25'2 9.2
2017-Jul-26 05:00N 38°40' W 009°25'2 0.5
2017-Jul-26 01:29N 38°42' W 009°25'2 3.5
2017-Jul-26 01:00N 38°40' W 009°24'2 3.4
2017-Jul-26 00:30N 38°42' W 009°25'0 0.0
2017-Jul-25 21:05N 38°42' W 009°25'0 1.4
2017-Jul-25 21:01N 38°42' W 009°25'3 6.8
2017-Jul-25 20:30N 38°38' W 009°24'3 0.7
2017-Jul-25 15:29N 38°42' W 009°25'5 9.7
2017-Jul-25 15:00N 38°37' W 009°22'5 0.5
2017-Jul-25 05:04N 38°42' W 009°25'0 2.9
2017-Jul-25 05:00N 38°42' W 009°25'0 0.3
2017-Jul-25 04:30N 38°42' W 009°25'0 0.0
2017-Jul-25 04:00N 38°42' W 009°25'0 0.0
2017-Jul-25 03:30N 38°42' W 009°25'2 4.9
2017-Jul-25 03:00N 38°39' W 009°24'2 4.9
2017-Jul-25 02:30N 38°42' W 009°25'0 0.0
2017-Jul-25 02:00N 38°42' W 009°25'0 0.0
2017-Jul-25 01:30N 38°42' W 009°25'2 4.1
2017-Jul-25 01:00N 38°40' W 009°26'2 0.4
2017-Jul-24 19:23N 38°42' W 009°25'410.6
2017-Jul-24 19:00N 38°38' W 009°23'4 8.1
2017-Jul-24 18:30N 38°42' W 009°25'0 0.1
2017-Jul-24 18:00N 38°42' W 009°25'0 0.0
2017-Jul-24 17:31N 38°42' W 009°25'0 0.0
2017-Jul-24 17:01N 38°42' W 009°25'0 0.0
2017-Jul-24 16:31N 38°42' W 009°25'0 0.0
2017-Jul-24 16:00N 38°42' W 009°25'2 0.8
2017-Jul-24 13:01N 38°39' W 009°24'1 1.7
2017-Jul-24 12:30N 38°40' W 009°24'2 3.0
2017-Jul-24 12:00N 38°42' W 009°25'0 0.0
2017-Jul-24 11:30N 38°42' W 009°25'0 0.0
2017-Jul-24 11:00N 38°42' W 009°25'0 0.0
2017-Jul-24 10:30N 38°42' W 009°25'0 0.0
2017-Jul-24 10:00N 38°42' W 009°25'0 0.0
2017-Jul-24 09:30N 38°42' W 009°25'0 0.0
2017-Jul-24 08:59N 38°42' W 009°25'0 0.0
2017-Jul-24 08:30N 38°42' W 009°25'2 3.2
2017-Jul-24 08:00N 38°40' W 009°25'1 1.4
2017-Jul-24 07:31N 38°40' W 009°26'2 4.1
2017-Jul-24 07:00N 38°42' W 009°25'0 0.0
2017-Jul-24 06:31N 38°42' W 009°25'0 0.0
2017-Jul-24 06:00N 38°42' W 009°25'0 0.0
2017-Jul-24 05:30N 38°42' W 009°25'0 0.0
2017-Jul-24 05:00N 38°42' W 009°25'0 0.0
2017-Jul-24 04:30N 38°42' W 009°25'2 3.7
2017-Jul-24 04:00N 38°40' W 009°25'2 3.6
2017-Jul-24 03:30N 38°42' W 009°25'0 0.0
2017-Jul-24 03:00N 38°42' W 009°25'0 0.0
2017-Jul-24 02:30N 38°42' W 009°25'0 0.0
2017-Jul-24 02:00N 38°42' W 009°25'0 0.0
2017-Jul-24 01:30N 38°42' W 009°25'0 0.0
2017-Jul-24 01:00N 38°42' W 009°25'0 0.0
2017-Jul-24 00:30N 38°42' W 009°25'0 0.0
2017-Jul-23 23:59N 38°42' W 009°25'0 0.0
2017-Jul-23 23:30N 38°42' W 009°25'0 0.0
2017-Jul-23 22:59N 38°42' W 009°25'0 0.0
2017-Jul-23 22:30N 38°42' W 009°25'0 0.0
2017-Jul-23 21:59N 38°42' W 009°25'0 0.0
2017-Jul-23 21:28N 38°42' W 009°25'0 0.0
2017-Jul-23 21:00N 38°42' W 009°25'0 0.0
2017-Jul-23 20:29N 38°42' W 009°25'0 0.0
2017-Jul-23 20:00N 38°42' W 009°25'0 0.0
2017-Jul-23 19:30N 38°42' W 009°25'0 0.0
2017-Jul-23 19:00N 38°42' W 009°25'0 0.0
2017-Jul-23 18:30N 38°42' W 009°25'0 0.0
2017-Jul-23 17:59N 38°42' W 009°25'0 0.0
2017-Jul-23 17:30N 38°42' W 009°25'0 0.0
2017-Jul-23 17:00N 38°42' W 009°25'0 0.0
2017-Jul-23 16:30N 38°42' W 009°25'0 0.0
2017-Jul-23 16:00N 38°42' W 009°25'0 0.0
2017-Jul-23 15:30N 38°42' W 009°25'0 0.0
2017-Jul-23 15:00N 38°42' W 009°25'0 0.0
2017-Jul-23 14:30N 38°42' W 009°25'2 4.1
2017-Jul-23 14:00N 38°40' W 009°25'2 4.1
2017-Jul-23 13:30N 38°42' W 009°25'0 0.0
2017-Jul-23 13:00N 38°42' W 009°25'0 0.0
2017-Jul-23 12:30N 38°42' W 009°25'0 0.0
2017-Jul-23 11:59N 38°42' W 009°25'0 0.0
2017-Jul-23 11:30N 38°42' W 009°25'0 0.0
2017-Jul-23 11:00N 38°42' W 009°25'0 0.0
2017-Jul-23 10:29N 38°42' W 009°25'0 0.0
2017-Jul-23 10:00N 38°42' W 009°25'0 0.0
2017-Jul-23 09:30N 38°42' W 009°25'0 0.0
2017-Jul-23 09:00N 38°42' W 009°25'0 0.0
2017-Jul-23 08:30N 38°42' W 009°25'0 0.0
2017-Jul-23 08:00N 38°42' W 009°25'0 0.0
2017-Jul-23 07:30N 38°42' W 009°25'0 0.0
2017-Jul-23 07:00N 38°42' W 009°25'0 0.0
2017-Jul-23 06:30N 38°42' W 009°25'0 0.0
2017-Jul-23 05:59N 38°42' W 009°25'0 0.0
2017-Jul-23 05:30N 38°42' W 009°25'3 5.8
2017-Jul-23 05:00N 38°39' W 009°25'3 0.2
2017-Jul-22 11:49N 38°42' W 009°25'3 9.1
2017-Jul-22 11:30N 38°39' W 009°23'5 9.6
2017-Jul-22 11:00N 38°41' W 009°17'3 5.2
2017-Jul-22 10:30N 38°42' W 009°14'0 0.0
2017-Jul-22 10:00N 38°42' W 009°14'0 0.0
2017-Jul-22 09:30N 38°42' W 009°14'0 0.0
2017-Jul-22 09:00N 38°42' W 009°14'0 0.0
2017-Jul-22 08:29N 38°42' W 009°14'0 0.0
2017-Jul-22 08:00N 38°42' W 009°14'0 0.0
2017-Jul-22 07:30N 38°42' W 009°14'0 0.0
2017-Jul-22 07:00N 38°42' W 009°14'0 0.0
2017-Jul-22 06:30N 38°42' W 009°14'0 0.0
2017-Jul-22 06:00N 38°42' W 009°14'0 0.0
2017-Jul-22 05:30N 38°42' W 009°14'0 0.0
2017-Jul-22 05:00N 38°42' W 009°14'0 0.0
2017-Jul-22 04:30N 38°42' W 009°14'0 0.0
2017-Jul-22 04:00N 38°42' W 009°14'0 0.0
2017-Jul-22 03:30N 38°42' W 009°14'0 0.0
2017-Jul-22 03:00N 38°42' W 009°14'0 0.0
2017-Jul-22 02:30N 38°42' W 009°14'0 0.0
2017-Jul-22 02:00N 38°42' W 009°14'0 0.0
2017-Jul-22 01:30N 38°42' W 009°14'0 0.0
2017-Jul-22 00:58N 38°42' W 009°14'0 0.0
2017-Jul-22 00:30N 38°42' W 009°14'0 0.0
2017-Jul-22 00:00N 38°42' W 009°14'0 0.0
2017-Jul-21 23:28N 38°42' W 009°14'0 0.0
2017-Jul-21 22:59N 38°42' W 009°14'0 0.0
2017-Jul-21 22:30N 38°42' W 009°14'0 0.0
2017-Jul-21 22:00N 38°42' W 009°14'0 0.0
2017-Jul-21 21:30N 38°42' W 009°14'0 0.0
2017-Jul-21 21:00N 38°42' W 009°14'0 0.0
2017-Jul-21 20:30N 38°42' W 009°14'0 0.0
2017-Jul-21 19:59N 38°42' W 009°14'0 0.0
2017-Jul-21 19:29N 38°42' W 009°14'0 0.0
2017-Jul-21 19:00N 38°42' W 009°14'0 0.0
2017-Jul-21 18:30N 38°42' W 009°14'0 0.0
2017-Jul-21 17:59N 38°42' W 009°14'0 0.0
2017-Jul-21 17:30N 38°42' W 009°14'0 0.0
2017-Jul-21 17:00N 38°42' W 009°14'0 0.0
2017-Jul-21 16:30N 38°42' W 009°14'0 0.0
2017-Jul-21 16:00N 38°42' W 009°14'0 0.0
2017-Jul-21 15:28N 38°42' W 009°14'0 0.0
2017-Jul-21 15:00N 38°42' W 009°14'0 0.0
2017-Jul-21 14:30N 38°42' W 009°14'0 0.0
2017-Jul-21 13:59N 38°42' W 009°14'0 0.0
2017-Jul-21 13:30N 38°42' W 009°14'0 0.0
2017-Jul-21 13:00N 38°42' W 009°14'0 0.0
2017-Jul-21 12:30N 38°42' W 009°14'0 0.0
2017-Jul-21 12:00N 38°42' W 009°14'0 0.0
2017-Jul-21 11:30N 38°42' W 009°14'0 0.0
2017-Jul-21 11:00N 38°42' W 009°14'0 0.0
2017-Jul-21 10:30N 38°42' W 009°14'0 0.0
2017-Jul-21 10:00N 38°42' W 009°14'0 0.0
2017-Jul-21 09:30N 38°42' W 009°14'0 0.0
2017-Jul-21 09:00N 38°42' W 009°14'0 0.6
2017-Jul-21 08:30N 38°42' W 009°14'2 3.7
2017-Jul-21 08:00N 38°41' W 009°12'510.2
2017-Jul-21 07:30N 38°40' W 009°18'3 2.7
2017-Jul-21 06:12N 38°42' W 009°14'0 0.0
2017-Jul-21 06:00N 38°42' W 009°14'0 0.0
2017-Jul-21 05:30N 38°42' W 009°14'0 0.0
2017-Jul-21 05:00N 38°42' W 009°14'0 0.0
2017-Jul-21 04:30N 38°42' W 009°14'0 0.0
2017-Jul-21 04:00N 38°42' W 009°14'0 0.0
2017-Jul-21 03:30N 38°42' W 009°14'0 0.0
2017-Jul-21 03:00N 38°42' W 009°14'0 0.0
2017-Jul-21 02:30N 38°42' W 009°14'0 0.0
2017-Jul-21 01:58N 38°42' W 009°14'0 0.0
2017-Jul-21 01:30N 38°42' W 009°14'0 0.0
2017-Jul-21 01:00N 38°42' W 009°14'0 0.0
2017-Jul-21 00:30N 38°42' W 009°14'0 0.0
2017-Jul-20 23:59N 38°42' W 009°14'0 0.0
2017-Jul-20 23:30N 38°42' W 009°14'0 0.0
2017-Jul-20 23:00N 38°42' W 009°14'0 0.0
2017-Jul-20 22:30N 38°42' W 009°14'0 0.0
2017-Jul-20 22:00N 38°42' W 009°14'0 0.0
2017-Jul-20 21:29N 38°42' W 009°14'0 0.0
2017-Jul-20 20:59N 38°42' W 009°14'0 0.0
2017-Jul-20 20:30N 38°42' W 009°14'2 3.2
2017-Jul-20 20:00N 38°41' W 009°16'713.2
2017-Jul-20 19:30N 38°38' W 009°23'4 7.8
2017-Jul-20 19:00N 38°42' W 009°25'0 0.0
2017-Jul-20 07:10N 38°42' W 009°25'1 5.7
2017-Jul-20 07:01N 38°41' W 009°25'1 0.2
2017-Jul-20 03:15N 38°42' W 009°25'2 9.0
2017-Jul-20 03:01N 38°40' W 009°23'1 1.0
2017-Jul-20 02:30N 38°40' W 009°24'2 0.4
2017-Jul-19 22:06N 38°42' W 009°25'0 0.7
2017-Jul-19 22:00N 38°42' W 009°25'0 0.0
2017-Jul-19 13:19N 38°42' W 009°25'310.8
2017-Jul-19 13:00N 38°39' W 009°23'3 6.5
2017-Jul-19 12:30N 38°42' W 009°25'0 0.7
2017-Jul-19 12:00N 38°41' W 009°25'1 2.1
2017-Jul-19 11:30N 38°40' W 009°26'1 0.0
2017-Jul-18 09:04N 38°42' W 009°25'0 0.0
2017-Jul-18 09:00N 38°42' W 009°25'0 0.0
2017-Jul-18 08:29N 38°42' W 009°25'1 2.6
2017-Jul-18 08:00N 38°40' W 009°25'1 2.5
2017-Jul-18 07:30N 38°42' W 009°25'0 0.0
2017-Jul-18 07:00N 38°42' W 009°25'0 0.0
2017-Jul-18 06:30N 38°42' W 009°25'0 0.0
2017-Jul-18 06:00N 38°42' W 009°25'0 0.0
2017-Jul-18 05:30N 38°42' W 009°25'0 0.0
2017-Jul-18 05:00N 38°42' W 009°25'0 0.0
2017-Jul-18 04:30N 38°42' W 009°25'0 0.0
2017-Jul-18 04:00N 38°42' W 009°25'0 0.0
2017-Jul-18 03:30N 38°42' W 009°25'0 0.0
2017-Jul-18 03:00N 38°42' W 009°25'0 0.0
2017-Jul-18 02:30N 38°42' W 009°25'0 0.0
2017-Jul-18 02:00N 38°42' W 009°25'0 0.0
2017-Jul-18 01:30N 38°42' W 009°25'0 0.0
2017-Jul-18 00:59N 38°42' W 009°25'0 0.0
2017-Jul-18 00:30N 38°42' W 009°25'0 0.0
2017-Jul-18 00:00N 38°42' W 009°25'0 0.0
2017-Jul-17 23:30N 38°42' W 009°25'1 1.5
2017-Jul-17 23:00N 38°41' W 009°24'2 4.7
2017-Jul-17 22:30N 38°39' W 009°24'3 6.0
2017-Jul-17 22:00N 38°42' W 009°25'0 0.0
2017-Jul-17 21:30N 38°42' W 009°25'0 0.0
2017-Jul-17 21:00N 38°42' W 009°25'0 0.0
2017-Jul-17 20:30N 38°42' W 009°25'0 0.0
2017-Jul-17 20:00N 38°42' W 009°25'0 0.0
2017-Jul-17 19:30N 38°42' W 009°25'0 0.0
2017-Jul-17 19:00N 38°42' W 009°25'3 6.7
2017-Jul-17 18:30N 38°39' W 009°23'3 6.6
2017-Jul-17 18:00N 38°42' W 009°25'0 0.0
2017-Jul-17 07:42N 38°42' W 009°25'1 7.3
2017-Jul-17 07:30N 38°40' W 009°25'510.2
2017-Jul-17 07:00N 38°35' W 009°26'4 7.2
2017-Jul-17 06:30N 38°37' W 009°23'5 1.3
2017-Jul-17 02:56N 38°42' W 009°25'0 0.2
2017-Jul-17 02:30N 38°42' W 009°25'0 0.2
2017-Jul-17 02:00N 38°42' W 009°25'0 0.0
2017-Jul-17 01:30N 38°42' W 009°25'0 0.0
2017-Jul-17 01:00N 38°42' W 009°25'0 0.0
2017-Jul-17 00:30N 38°42' W 009°25'0 0.0
2017-Jul-17 00:00N 38°42' W 009°25'0 0.0
2017-Jul-16 23:30N 38°42' W 009°25'0 0.0
2017-Jul-16 23:00N 38°42' W 009°25'0 0.0
2017-Jul-16 22:30N 38°42' W 009°25'0 0.0
2017-Jul-16 22:00N 38°42' W 009°25'0 0.0
2017-Jul-16 21:30N 38°42' W 009°25'0 0.0
2017-Jul-16 21:00N 38°42' W 009°25'0 0.0
2017-Jul-16 20:30N 38°42' W 009°25'0 0.0
2017-Jul-16 20:00N 38°42' W 009°25'0 0.0
2017-Jul-16 19:30N 38°42' W 009°25'0 0.0
2017-Jul-16 19:00N 38°42' W 009°25'0 0.0
2017-Jul-16 18:30N 38°42' W 009°25'  

Dump ship's entire track history